CPX266 Details

Departure: Charlotte/Douglas International Airport (KCLT)
Arrival: March Air Reserve Base (KRIV)
Route: BOBZY4 BNA J46 TUL PNH J78 DRK J134 TRM ARKOE1


Current Weather Information
KCLT 260052Z 20005KT 10SM FEW160 BKN190 OVC250 22/14 A2987 RMK AO2 SLP107 T02170144
KRIV 260058Z AUTO 30010KT 10SM CLR 27/02 A2994 RMK AO2 SLP131 T02700021